createdAt,value
2023-01-20T00:00:12.192Z,0.00
2023-01-20T00:01:12.186Z,0.00
2023-01-20T00:02:12.172Z,0.00
2023-01-20T00:03:12.147Z,0.00
2023-01-20T00:04:12.138Z,0.00
2023-01-20T00:05:12.475Z,0.00
2023-01-20T00:06:12.105Z,0.00
2023-01-20T00:07:12.079Z,0.00
2023-01-20T00:08:12.070Z,0.00
2023-01-20T00:09:12.061Z,0.00
2023-01-20T00:10:12.047Z,0.00
2023-01-20T00:11:12.033Z,0.00
2023-01-20T00:12:12.022Z,0.00
2023-01-20T00:13:12.004Z,0.00
2023-01-20T00:14:12.015Z,0.00
2023-01-20T00:15:12.358Z,0.00
2023-01-20T00:16:12.061Z,0.00
2023-01-20T00:17:11.952Z,0.00
2023-01-20T00:18:11.990Z,0.00
2023-01-20T00:19:11.928Z,0.00
2023-01-20T00:20:11.925Z,0.00
2023-01-20T00:21:11.941Z,0.00
2023-01-20T00:22:11.881Z,0.00
2023-01-20T00:23:11.874Z,0.00
2023-01-20T00:24:11.882Z,0.00
2023-01-20T00:25:12.398Z,0.00
2023-01-20T00:26:11.836Z,0.00
2023-01-20T00:27:11.818Z,0.00
2023-01-20T00:28:11.809Z,0.00
2023-01-20T00:29:11.795Z,0.00
2023-01-20T00:30:11.786Z,0.00
2023-01-20T00:31:11.832Z,0.00
2023-01-20T00:32:11.757Z,0.00
2023-01-20T00:33:11.739Z,0.00
2023-01-20T00:34:11.784Z,0.00
2023-01-20T00:35:11.965Z,0.00
2023-01-20T00:36:11.699Z,0.00
2023-01-20T00:37:11.687Z,0.00
2023-01-20T00:38:11.669Z,0.00
2023-01-20T00:39:11.682Z,0.00
2023-01-20T00:40:11.642Z,0.00
2023-01-20T00:41:11.642Z,0.00
2023-01-20T00:42:11.619Z,0.00
2023-01-20T00:43:11.609Z,0.00
2023-01-20T00:44:11.593Z,0.00
2023-01-20T00:45:11.859Z,0.00
2023-01-20T00:46:11.649Z,0.00
2023-01-20T00:47:11.554Z,0.00
2023-01-20T00:48:11.539Z,0.00
2023-01-20T00:49:11.524Z,0.00
2023-01-20T00:50:11.534Z,0.00
2023-01-20T00:51:11.504Z,0.00
2023-01-20T00:52:11.483Z,0.00
2023-01-20T00:53:11.477Z,0.00
2023-01-20T00:54:11.458Z,0.00
2023-01-20T00:55:11.920Z,0.00
2023-01-20T00:56:11.434Z,0.00
2023-01-20T00:57:11.416Z,0.00
2023-01-20T00:58:11.401Z,0.00
2023-01-20T00:59:11.393Z,0.00
2023-01-20T01:00:11.374Z,0.00
2023-01-20T01:01:11.500Z,0.00
2023-01-20T01:02:11.362Z,0.00
2023-01-20T01:03:11.335Z,0.00
2023-01-20T01:04:11.321Z,0.00
2023-01-20T01:05:11.558Z,0.00
2023-01-20T01:06:11.334Z,0.00
2023-01-20T01:07:11.295Z,0.00
2023-01-20T01:08:11.275Z,0.00
2023-01-20T01:09:11.268Z,0.00
2023-01-20T01:10:11.244Z,0.00
2023-01-20T01:11:11.232Z,0.00
2023-01-20T01:12:11.223Z,0.00
2023-01-20T01:13:11.237Z,0.00
2023-01-20T01:14:11.190Z,0.00
2023-01-20T01:15:11.438Z,0.00
2023-01-20T01:16:11.216Z,0.00
2023-01-20T01:17:11.155Z,0.00
2023-01-20T01:18:11.132Z,0.00
2023-01-20T01:19:11.128Z,0.00
2023-01-20T01:20:11.109Z,0.00
2023-01-20T01:21:11.116Z,0.00
2023-01-20T01:22:11.109Z,0.00
2023-01-20T01:23:11.083Z,0.00
2023-01-20T01:24:11.071Z,0.00
2023-01-20T01:25:11.547Z,0.00
2023-01-20T01:26:11.049Z,0.00
2023-01-20T01:27:11.020Z,0.00
2023-01-20T01:28:11.009Z,0.00
2023-01-20T01:29:10.997Z,0.00
2023-01-20T01:30:10.975Z,0.00
2023-01-20T01:31:11.024Z,0.00
2023-01-20T01:32:10.969Z,0.00
2023-01-20T01:33:10.940Z,0.00
2023-01-20T01:34:10.931Z,0.00
2023-01-20T01:35:10.913Z,0.00
2023-01-20T01:36:10.901Z,0.00
2023-01-20T01:37:10.885Z,0.00
2023-01-20T01:38:10.901Z,0.00
2023-01-20T01:39:10.859Z,0.00
2023-01-20T01:40:10.853Z,0.00
2023-01-20T01:41:10.834Z,0.00
2023-01-20T01:42:10.817Z,0.00
2023-01-20T01:43:10.802Z,0.00
2023-01-20T01:44:10.789Z,0.00
2023-01-20T01:45:11.131Z,0.00
2023-01-20T01:46:10.765Z,0.00
2023-01-20T01:47:10.755Z,0.00
2023-01-20T01:48:10.744Z,0.00
2023-01-20T01:49:10.732Z,0.00
2023-01-20T01:50:10.719Z,0.00
2023-01-20T01:51:10.708Z,0.00
2023-01-20T01:52:10.687Z,0.00
2023-01-20T01:53:10.668Z,0.00
2023-01-20T01:54:10.697Z,0.00
2023-01-20T01:55:10.720Z,0.00
2023-01-20T01:56:10.638Z,0.00
2023-01-20T01:57:10.621Z,0.00
2023-01-20T01:58:10.607Z,0.00
2023-01-20T01:59:10.595Z,0.00
2023-01-20T02:00:10.585Z,0.00
2023-01-20T02:01:10.668Z,0.00
2023-01-20T02:02:10.615Z,0.00
2023-01-20T02:03:10.536Z,0.00
2023-01-20T02:04:10.531Z,0.00
2023-01-20T02:05:10.509Z,0.00
2023-01-20T02:06:10.497Z,0.00
2023-01-20T02:07:10.493Z,0.00
2023-01-20T02:08:10.472Z,0.00
2023-01-20T02:09:10.460Z,0.00
2023-01-20T02:10:10.468Z,0.00
2023-01-20T02:11:10.447Z,0.00
2023-01-20T02:12:10.419Z,0.00
2023-01-20T02:13:10.407Z,0.00
2023-01-20T02:14:10.408Z,0.00
2023-01-20T02:15:10.381Z,0.00
2023-01-20T02:16:10.399Z,0.00
2023-01-20T02:17:10.348Z,0.00
2023-01-20T02:18:10.338Z,0.00
2023-01-20T02:19:10.324Z,0.00
2023-01-20T02:20:10.307Z,0.00
2023-01-20T02:21:10.298Z,0.00
2023-01-20T02:22:10.283Z,0.00
2023-01-20T02:23:10.269Z,0.00
2023-01-20T02:24:10.256Z,0.00
2023-01-20T02:25:10.251Z,0.00
2023-01-20T02:26:10.255Z,0.00
2023-01-20T02:27:10.222Z,0.00
2023-01-20T02:28:10.208Z,0.00
2023-01-20T02:29:10.188Z,0.00
2023-01-20T02:30:10.174Z,0.00
2023-01-20T02:31:10.168Z,0.00
2023-01-20T02:32:10.150Z,0.00
2023-01-20T02:33:10.147Z,0.00
2023-01-20T02:34:10.126Z,0.00
2023-01-20T02:35:10.115Z,0.00
2023-01-20T02:36:10.103Z,0.00
2023-01-20T02:37:10.084Z,0.00
2023-01-20T02:38:10.072Z,0.00
2023-01-20T02:39:10.055Z,0.00
2023-01-20T02:40:10.045Z,0.00
2023-01-20T02:41:10.043Z,0.00
2023-01-20T02:42:10.039Z,0.00
2023-01-20T02:43:10.009Z,0.00
2023-01-20T02:44:09.995Z,0.00
2023-01-20T02:45:09.979Z,0.00
2023-01-20T02:46:09.965Z,0.00
2023-01-20T02:47:09.953Z,0.00
2023-01-20T02:48:09.936Z,0.00
2023-01-20T02:49:09.929Z,0.00
2023-01-20T02:50:09.913Z,0.00
2023-01-20T02:51:09.907Z,0.00
2023-01-20T02:52:09.884Z,0.00
2023-01-20T02:53:09.873Z,0.00
2023-01-20T02:54:09.857Z,0.00
2023-01-20T02:55:09.854Z,0.00
2023-01-20T02:56:09.838Z,0.00
2023-01-20T02:57:09.834Z,0.00
2023-01-20T02:58:09.823Z,0.00
2023-01-20T02:59:09.801Z,0.00
2023-01-20T03:00:09.779Z,0.00
2023-01-20T03:01:09.836Z,0.00
2023-01-20T03:02:09.822Z,0.00
2023-01-20T03:03:09.749Z,0.00
2023-01-20T03:04:09.815Z,0.00
2023-01-20T03:05:09.718Z,0.00
2023-01-20T03:06:09.704Z,0.00
2023-01-20T03:07:09.686Z,0.00
2023-01-20T03:08:09.673Z,0.00
2023-01-20T03:09:09.659Z,0.00
2023-01-20T03:10:09.654Z,0.00
2023-01-20T03:11:09.639Z,0.00
2023-01-20T03:12:09.612Z,0.00
2023-01-20T03:13:09.608Z,0.00
2023-01-20T03:14:09.621Z,0.00
2023-01-20T03:15:09.580Z,0.00
2023-01-20T03:16:09.566Z,0.00
2023-01-20T03:17:09.556Z,0.00
2023-01-20T03:18:09.540Z,0.00
2023-01-20T03:19:09.531Z,0.00
2023-01-20T03:20:09.579Z,0.00
2023-01-20T03:21:09.509Z,0.00
2023-01-20T03:22:09.490Z,0.00
2023-01-20T03:23:09.488Z,0.00
2023-01-20T03:24:09.456Z,0.00
2023-01-20T03:25:09.463Z,0.00
2023-01-20T03:26:09.439Z,0.00
2023-01-20T03:27:09.420Z,0.00
2023-01-20T03:28:09.415Z,0.00
2023-01-20T03:29:09.414Z,0.00
2023-01-20T03:30:09.399Z,0.00
2023-01-20T03:31:09.518Z,0.00
2023-01-20T03:32:09.361Z,0.00
2023-01-20T03:33:09.339Z,0.00
2023-01-20T03:34:09.326Z,0.00
2023-01-20T03:35:09.311Z,0.00
2023-01-20T03:36:09.307Z,0.00
2023-01-20T03:37:09.295Z,0.00
2023-01-20T03:38:09.277Z,0.00
2023-01-20T03:39:09.265Z,0.00
2023-01-20T03:40:09.250Z,0.00
2023-01-20T03:41:09.243Z,0.00
2023-01-20T03:42:09.221Z,0.00
2023-01-20T03:43:09.214Z,0.00
2023-01-20T03:44:09.202Z,0.00
2023-01-20T03:45:09.178Z,0.00
2023-01-20T03:46:09.234Z,0.00
2023-01-20T03:47:09.157Z,0.00
2023-01-20T03:48:09.142Z,0.00
2023-01-20T03:49:09.128Z,0.00
2023-01-20T03:50:09.113Z,0.00
2023-01-20T03:51:09.102Z,0.00
2023-01-20T03:52:09.084Z,0.00
2023-01-20T03:53:09.076Z,0.00
2023-01-20T03:54:09.064Z,0.00
2023-01-20T03:55:09.051Z,0.00
2023-01-20T03:56:09.032Z,0.00
2023-01-20T03:57:09.033Z,0.00
2023-01-20T03:58:09.011Z,0.00
2023-01-20T03:59:08.996Z,0.00
2023-01-20T04:00:08.979Z,0.00
2023-01-20T04:01:17.941Z,0.00
2023-01-20T04:02:09.158Z,0.00
2023-01-20T04:03:09.041Z,0.00
2023-01-20T04:04:08.924Z,0.00
2023-01-20T04:05:08.919Z,0.00
2023-01-20T04:06:08.901Z,0.00
2023-01-20T04:07:08.888Z,0.00
2023-01-20T04:08:08.890Z,0.00
2023-01-20T04:09:08.872Z,0.00
2023-01-20T04:10:08.843Z,0.00
2023-01-20T04:11:08.830Z,0.00
2023-01-20T04:12:08.815Z,0.00
2023-01-20T04:13:08.811Z,0.00
2023-01-20T04:14:08.796Z,0.00
2023-01-20T04:15:08.780Z,0.00
2023-01-20T04:16:08.841Z,0.00
2023-01-20T04:17:08.760Z,0.00
2023-01-20T04:18:08.767Z,0.00
2023-01-20T04:19:08.729Z,0.00
2023-01-20T04:20:08.723Z,0.00
2023-01-20T04:21:08.703Z,0.00
2023-01-20T04:22:08.690Z,0.00
2023-01-20T04:23:08.680Z,0.00
2023-01-20T04:24:08.665Z,0.00
2023-01-20T04:25:08.642Z,0.00
2023-01-20T04:26:08.634Z,0.00
2023-01-20T04:27:08.615Z,0.00
2023-01-20T04:28:08.599Z,0.00
2023-01-20T04:29:11.236Z,0.00
2023-01-20T04:30:08.578Z,0.00
2023-01-20T04:31:15.459Z,0.00
2023-01-20T04:32:08.613Z,0.00
2023-01-20T04:33:08.543Z,0.00
2023-01-20T04:34:08.548Z,0.00
2023-01-20T04:35:08.517Z,0.00
2023-01-20T04:36:08.497Z,0.00
2023-01-20T04:37:08.483Z,0.00
2023-01-20T04:38:08.525Z,0.00
2023-01-20T04:39:08.458Z,0.00
2023-01-20T04:40:08.452Z,0.00
2023-01-20T04:41:08.429Z,0.00
2023-01-20T04:42:08.413Z,0.00
2023-01-20T04:43:08.397Z,0.00
2023-01-20T04:44:08.390Z,0.00
2023-01-20T04:45:08.370Z,0.00
2023-01-20T04:46:08.407Z,0.00
2023-01-20T04:47:08.359Z,0.00
2023-01-20T04:48:08.342Z,0.00
2023-01-20T04:49:08.333Z,0.00
2023-01-20T04:50:08.334Z,0.00
2023-01-20T04:51:08.291Z,0.00
2023-01-20T04:52:08.289Z,0.00
2023-01-20T04:53:08.618Z,0.00
2023-01-20T04:54:08.270Z,0.00
2023-01-20T04:55:08.244Z,0.00
2023-01-20T04:56:08.238Z,0.00
2023-01-20T04:57:08.214Z,0.00
2023-01-20T04:58:08.201Z,0.00
2023-01-20T04:59:08.183Z,0.00
2023-01-20T05:00:08.174Z,0.00
2023-01-20T05:01:08.174Z,0.00
2023-01-20T05:02:08.193Z,0.00
2023-01-20T05:03:08.225Z,0.00
2023-01-20T05:04:08.120Z,0.00
2023-01-20T05:05:08.108Z,0.00
2023-01-20T05:06:08.117Z,0.00
2023-01-20T05:07:08.080Z,0.00
2023-01-20T05:08:08.092Z,0.00
2023-01-20T05:09:08.052Z,0.00
2023-01-20T05:10:08.041Z,0.00
2023-01-20T05:11:08.048Z,0.00
2023-01-20T05:12:08.063Z,0.00
2023-01-20T05:13:08.006Z,0.00
2023-01-20T05:14:07.991Z,0.00
2023-01-20T05:15:07.979Z,0.00
2023-01-20T05:16:08.009Z,0.00
2023-01-20T05:17:07.952Z,0.00
2023-01-20T05:18:07.937Z,0.00
2023-01-20T05:19:07.927Z,0.00
2023-01-20T05:20:07.910Z,0.00
2023-01-20T05:21:07.902Z,0.00
2023-01-20T05:22:07.905Z,0.00
2023-01-20T05:23:07.868Z,0.00
2023-01-20T05:24:07.856Z,0.00
2023-01-20T05:25:07.846Z,0.00
2023-01-20T05:26:07.826Z,0.00
2023-01-20T05:27:07.813Z,0.00
2023-01-20T05:28:07.801Z,0.00
2023-01-20T05:29:07.788Z,0.00
2023-01-20T05:30:07.778Z,0.00
2023-01-20T05:31:07.900Z,0.00
2023-01-20T05:32:07.752Z,0.00
2023-01-20T05:33:07.737Z,0.00
2023-01-20T05:34:07.720Z,0.00
2023-01-20T05:35:07.710Z,0.00
2023-01-20T05:36:07.706Z,0.00
2023-01-20T05:37:07.674Z,0.00
2023-01-20T05:38:07.690Z,0.00
2023-01-20T05:39:07.666Z,0.00
2023-01-20T05:40:07.653Z,0.00
2023-01-20T05:41:07.643Z,0.00
2023-01-20T05:42:07.629Z,0.00
2023-01-20T05:43:07.610Z,0.00
2023-01-20T05:44:07.589Z,0.00
2023-01-20T05:45:07.578Z,0.00
2023-01-20T05:46:07.599Z,0.00
2023-01-20T05:47:07.545Z,0.00
2023-01-20T05:48:07.532Z,0.00
2023-01-20T05:49:07.517Z,0.00
2023-01-20T05:50:07.529Z,0.00
2023-01-20T05:51:07.497Z,0.00
2023-01-20T05:52:07.480Z,0.00
2023-01-20T05:53:07.470Z,0.00
2023-01-20T05:54:07.627Z,0.00
2023-01-20T05:55:07.458Z,0.00
2023-01-20T05:56:07.441Z,0.00
2023-01-20T05:57:07.418Z,0.00
2023-01-20T05:58:07.404Z,0.00
2023-01-20T05:59:07.390Z,0.00
2023-01-20T06:00:08.726Z,0.00
2023-01-20T06:01:07.459Z,0.00
2023-01-20T06:02:07.364Z,0.00
2023-01-20T06:03:07.328Z,0.00
2023-01-20T06:04:07.380Z,0.00
2023-01-20T06:05:07.310Z,0.00
2023-01-20T06:06:07.346Z,0.00
2023-01-20T06:07:07.279Z,0.00
2023-01-20T06:08:07.291Z,0.00
2023-01-20T06:09:07.259Z,0.00
2023-01-20T06:10:07.265Z,0.00
2023-01-20T06:11:07.229Z,0.00
2023-01-20T06:12:07.226Z,0.00
2023-01-20T06:13:07.199Z,0.00
2023-01-20T06:14:07.195Z,0.00
2023-01-20T06:15:07.179Z,0.00
2023-01-20T06:16:07.579Z,0.00
2023-01-20T06:17:07.156Z,0.00
2023-01-20T06:18:07.142Z,0.00
2023-01-20T06:19:07.127Z,0.00
2023-01-20T06:20:07.122Z,0.00
2023-01-20T06:21:07.117Z,0.00
2023-01-20T06:22:07.084Z,0.00
2023-01-20T06:23:07.078Z,0.00
2023-01-20T06:24:07.068Z,0.00
2023-01-20T06:25:07.053Z,0.00
2023-01-20T06:26:07.079Z,0.00
2023-01-20T06:27:07.031Z,0.00
2023-01-20T06:28:07.003Z,0.00
2023-01-20T06:29:06.984Z,0.00
2023-01-20T06:30:07.008Z,0.00
2023-01-20T06:31:07.168Z,0.00
2023-01-20T06:32:06.952Z,0.00
2023-01-20T06:33:06.941Z,0.00
2023-01-20T06:34:06.929Z,0.00
2023-01-20T06:35:06.913Z,0.00
2023-01-20T06:36:06.904Z,0.00
2023-01-20T06:37:06.891Z,0.00
2023-01-20T06:38:06.885Z,0.00
2023-01-20T06:39:06.858Z,0.00
2023-01-20T06:40:06.846Z,4.00
2023-01-20T06:41:06.829Z,4.00
2023-01-20T06:42:06.843Z,0.00
2023-01-20T06:43:06.807Z,4.00
2023-01-20T06:44:06.790Z,4.00
2023-01-20T06:45:06.776Z,8.00
2023-01-20T06:46:06.771Z,8.00
2023-01-20T06:47:06.752Z,8.00
2023-01-20T06:48:06.741Z,8.00
2023-01-20T06:49:06.728Z,12.00
2023-01-20T06:50:06.714Z,12.00
2023-01-20T06:51:06.707Z,12.00
2023-01-20T06:52:06.692Z,16.00
2023-01-20T06:53:06.669Z,16.00
2023-01-20T06:54:06.653Z,24.00
2023-01-20T06:55:06.646Z,24.00
2023-01-20T06:56:06.631Z,28.00
2023-01-20T06:57:06.629Z,32.00
2023-01-20T06:58:06.636Z,36.00
2023-01-20T06:59:06.602Z,40.00
2023-01-20T07:00:06.581Z,44.00
2023-01-20T07:01:06.709Z,48.00
2023-01-20T07:02:06.674Z,52.00
2023-01-20T07:03:06.546Z,60.00
2023-01-20T07:04:06.537Z,60.00
2023-01-20T07:05:06.508Z,68.00
2023-01-20T07:06:06.496Z,76.00
2023-01-20T07:07:06.480Z,88.00
2023-01-20T07:08:06.471Z,96.00
2023-01-20T07:09:06.462Z,108.00
2023-01-20T07:10:06.457Z,116.00
2023-01-20T07:11:06.429Z,128.00
2023-01-20T07:12:06.416Z,140.00
2023-01-20T07:13:06.407Z,152.00
2023-01-20T07:14:06.426Z,164.00
2023-01-20T07:15:06.383Z,180.00
2023-01-20T07:16:07.808Z,192.00
2023-01-20T07:17:06.352Z,212.00
2023-01-20T07:18:06.343Z,232.00
2023-01-20T07:19:06.321Z,256.00
2023-01-20T07:20:06.318Z,280.00
2023-01-20T07:21:06.298Z,300.00
2023-01-20T07:22:06.283Z,316.00
2023-01-20T07:23:06.272Z,328.00
2023-01-20T07:24:06.269Z,348.00
2023-01-20T07:25:06.245Z,380.00
2023-01-20T07:26:06.233Z,404.00
2023-01-20T07:27:06.216Z,416.00
2023-01-20T07:28:06.208Z,420.00
2023-01-20T07:29:06.188Z,424.00
2023-01-20T07:30:06.297Z,424.00
2023-01-20T07:31:06.166Z,428.00
2023-01-20T07:32:06.167Z,436.00
2023-01-20T07:33:06.148Z,448.00
2023-01-20T07:34:06.133Z,464.00
2023-01-20T07:35:06.122Z,472.00
2023-01-20T07:36:06.096Z,492.00
2023-01-20T07:37:06.096Z,504.00
2023-01-20T07:38:06.079Z,524.00
2023-01-20T07:39:06.061Z,548.00
2023-01-20T07:40:06.046Z,564.00
2023-01-20T07:41:06.037Z,592.00
2023-01-20T07:42:06.021Z,620.00
2023-01-20T07:43:06.006Z,656.00
2023-01-20T07:44:06.007Z,692.00
2023-01-20T07:45:06.004Z,724.00
2023-01-20T07:46:06.118Z,764.00
2023-01-20T07:47:05.953Z,808.00
2023-01-20T07:48:05.943Z,840.00
2023-01-20T07:49:05.924Z,852.00
2023-01-20T07:50:05.916Z,860.00
2023-01-20T07:51:05.955Z,864.00
2023-01-20T07:52:05.890Z,868.00
2023-01-20T07:53:05.882Z,884.00
2023-01-20T07:54:05.863Z,904.00
2023-01-20T07:55:05.847Z,928.00
2023-01-20T07:56:05.849Z,940.00
2023-01-20T07:57:05.822Z,952.00
2023-01-20T07:58:05.817Z,964.00
2023-01-20T07:59:05.797Z,964.00
2023-01-20T08:00:05.786Z,972.00
2023-01-20T08:01:05.902Z,996.00
2023-01-20T08:02:05.826Z,1024.00
2023-01-20T08:03:05.737Z,1048.00
2023-01-20T08:04:05.725Z,1080.00
2023-01-20T08:05:05.759Z,1132.00
2023-01-20T08:06:05.703Z,1208.00
2023-01-20T08:07:05.681Z,1312.00
2023-01-20T08:08:05.672Z,1420.00
2023-01-20T08:09:05.654Z,1548.00
2023-01-20T08:10:05.646Z,1664.00
2023-01-20T08:11:05.629Z,1740.00
2023-01-20T08:12:05.628Z,1736.00
2023-01-20T08:13:05.614Z,1736.00
2023-01-20T08:14:05.599Z,1764.00
2023-01-20T08:15:05.584Z,1824.00
2023-01-20T08:16:05.565Z,1936.00
2023-01-20T08:17:05.555Z,2008.00
2023-01-20T08:18:05.562Z,2056.00
2023-01-20T08:19:05.524Z,2108.00
2023-01-20T08:20:05.512Z,2124.00
2023-01-20T08:21:05.531Z,2176.00
2023-01-20T08:22:05.500Z,2256.00
2023-01-20T08:23:05.478Z,2304.00
2023-01-20T08:24:05.497Z,2324.00
2023-01-20T08:25:05.445Z,2372.00
2023-01-20T08:26:05.442Z,2424.00
2023-01-20T08:27:05.419Z,2448.00
2023-01-20T08:28:05.650Z,2476.00
2023-01-20T08:29:05.400Z,2524.00
2023-01-20T08:30:05.385Z,2556.00
2023-01-20T08:31:05.471Z,2556.00
2023-01-20T08:32:05.353Z,2508.00
2023-01-20T08:33:05.341Z,2472.00
2023-01-20T08:34:05.363Z,2452.00
2023-01-20T08:35:05.312Z,2468.00
2023-01-20T08:36:05.299Z,2444.00
2023-01-20T08:37:05.283Z,2420.00
2023-01-20T08:38:05.270Z,2396.00
2023-01-20T08:39:05.257Z,2468.00
2023-01-20T08:40:05.313Z,2592.00
2023-01-20T08:41:05.233Z,2676.00
2023-01-20T08:42:05.222Z,2788.00
2023-01-20T08:43:05.202Z,2868.00
2023-01-20T08:44:05.202Z,3000.00
2023-01-20T08:45:05.178Z,3068.00
2023-01-20T08:46:05.253Z,3088.00
2023-01-20T08:47:05.158Z,3048.00
2023-01-20T08:48:05.139Z,2992.00
2023-01-20T08:49:05.131Z,2928.00
2023-01-20T08:50:05.138Z,2908.00
2023-01-20T08:51:05.161Z,2940.00
2023-01-20T08:52:05.084Z,2936.00
2023-01-20T08:53:05.089Z,2888.00
2023-01-20T08:54:05.060Z,2892.00
2023-01-20T08:55:05.041Z,2912.00
2023-01-20T08:56:05.025Z,2924.00
2023-01-20T08:57:05.016Z,2956.00
2023-01-20T08:58:05.010Z,3020.00
2023-01-20T08:59:04.999Z,3048.00
2023-01-20T09:00:04.976Z,3080.00
2023-01-20T09:01:05.019Z,3132.00
2023-01-20T09:02:04.979Z,3148.00
2023-01-20T09:03:04.936Z,3116.00
2023-01-20T09:04:06.771Z,3128.00
2023-01-20T09:05:04.915Z,3196.00
2023-01-20T09:06:04.920Z,3276.00
2023-01-20T09:07:04.882Z,3292.00
2023-01-20T09:08:04.861Z,3340.00
2023-01-20T09:09:04.869Z,3376.00
2023-01-20T09:10:04.837Z,3368.00
2023-01-20T09:11:04.998Z,3340.00
2023-01-20T09:12:04.812Z,3380.00
2023-01-20T09:13:04.799Z,3344.00
2023-01-20T09:14:04.781Z,3316.00
2023-01-20T09:15:05.103Z,3272.00
2023-01-20T09:16:04.794Z,3244.00
2023-01-20T09:17:04.809Z,3312.00
2023-01-20T09:18:04.738Z,3352.00
2023-01-20T09:19:04.721Z,3340.00
2023-01-20T09:20:04.708Z,3404.00
2023-01-20T09:21:04.693Z,3480.00
2023-01-20T09:22:04.722Z,3504.00
2023-01-20T09:23:04.678Z,3588.00
2023-01-20T09:24:04.666Z,3704.00
2023-01-20T09:25:04.645Z,3804.00
2023-01-20T09:26:04.630Z,3892.00
2023-01-20T09:27:04.610Z,4008.00
2023-01-20T09:28:06.618Z,4132.00
2023-01-20T09:29:04.603Z,4200.00
2023-01-20T09:30:04.573Z,4272.00
2023-01-20T09:31:04.777Z,4348.00
2023-01-20T09:32:04.705Z,4396.00
2023-01-20T09:33:04.553Z,4348.00
2023-01-20T09:34:04.518Z,4280.00
2023-01-20T09:35:04.515Z,4240.00
2023-01-20T09:36:04.488Z,4224.00
2023-01-20T09:37:04.494Z,4168.00
2023-01-20T09:38:04.505Z,4136.00
2023-01-20T09:39:04.458Z,4160.00
2023-01-20T09:40:04.440Z,4240.00
2023-01-20T09:41:04.428Z,4320.00
2023-01-20T09:42:04.411Z,4372.00
2023-01-20T09:43:04.407Z,4460.00
2023-01-20T09:44:04.390Z,4568.00
2023-01-20T09:45:04.378Z,4624.00
2023-01-20T09:46:04.381Z,4636.00
2023-01-20T09:47:04.397Z,4676.00
2023-01-20T09:48:04.333Z,4708.00
2023-01-20T09:49:04.324Z,4696.00
2023-01-20T09:50:04.303Z,4720.00
2023-01-20T09:51:04.303Z,4764.00
2023-01-20T09:52:04.292Z,4780.00
2023-01-20T09:53:04.264Z,4824.00
2023-01-20T09:54:04.275Z,4932.00
2023-01-20T09:55:04.256Z,5120.00
2023-01-20T09:56:04.235Z,5328.00
2023-01-20T09:57:04.219Z,5440.00
2023-01-20T09:58:04.208Z,5452.00
2023-01-20T09:59:04.192Z,5492.00
2023-01-20T10:00:04.179Z,5556.00
2023-01-20T10:01:04.168Z,5584.00
2023-01-20T10:02:04.147Z,5624.00
2023-01-20T10:03:04.138Z,5708.00
2023-01-20T10:04:05.073Z,5784.00
2023-01-20T10:05:04.153Z,5844.00
2023-01-20T10:06:04.091Z,5816.00
2023-01-20T10:07:04.081Z,5776.00
2023-01-20T10:08:04.064Z,5768.00
2023-01-20T10:09:06.199Z,5808.00
2023-01-20T10:10:04.103Z,5828.00
2023-01-20T10:11:04.029Z,5864.00
2023-01-20T10:12:04.011Z,5920.00
2023-01-20T10:13:03.998Z,5972.00
2023-01-20T10:14:03.992Z,6012.00
2023-01-20T10:15:03.972Z,6064.00
2023-01-20T10:16:04.048Z,6092.00
2023-01-20T10:17:03.942Z,6108.00
2023-01-20T10:18:03.932Z,6156.00
2023-01-20T10:19:03.917Z,6240.00
2023-01-20T10:20:03.905Z,6276.00
2023-01-20T10:21:03.904Z,6284.00
2023-01-20T10:22:03.874Z,6292.00
2023-01-20T10:23:03.869Z,6348.00
2023-01-20T10:24:03.848Z,6460.00
2023-01-20T10:25:03.836Z,6684.00
2023-01-20T10:26:03.847Z,6884.00
2023-01-20T10:27:03.816Z,7060.00
2023-01-20T10:28:03.807Z,7204.00
2023-01-20T10:29:03.787Z,7360.00
2023-01-20T10:30:03.759Z,7464.00
2023-01-20T10:31:04.016Z,7568.00
2023-01-20T10:32:03.739Z,7656.00
2023-01-20T10:33:03.720Z,7756.00
2023-01-20T10:34:03.706Z,7924.00
2023-01-20T10:35:03.702Z,8012.00
2023-01-20T10:36:03.685Z,8084.00
2023-01-20T10:37:03.671Z,8248.00
2023-01-20T10:38:03.660Z,8384.00
2023-01-20T10:39:03.639Z,8512.00
2023-01-20T10:40:03.630Z,8584.00
2023-01-20T10:41:03.640Z,8616.00
2023-01-20T10:42:03.624Z,8684.00
2023-01-20T10:43:03.589Z,8760.00
2023-01-20T10:44:03.573Z,8944.00
2023-01-20T10:45:03.568Z,9160.00
2023-01-20T10:46:03.592Z,9512.00
2023-01-20T10:47:03.535Z,9996.00
2023-01-20T10:48:03.521Z,11144.00
2023-01-20T10:49:03.514Z,12424.00
2023-01-20T10:50:03.506Z,14204.00
2023-01-20T10:51:03.483Z,15584.00
2023-01-20T10:52:03.467Z,16352.00
2023-01-20T10:53:03.481Z,16480.00
2023-01-20T10:54:03.457Z,13852.00
2023-01-20T10:55:03.432Z,13576.00
2023-01-20T10:56:03.417Z,13220.00
2023-01-20T10:57:03.433Z,11324.00
2023-01-20T10:58:03.421Z,10688.00
2023-01-20T10:59:03.414Z,10556.00
2023-01-20T11:00:03.359Z,10752.00
2023-01-20T11:01:03.362Z,11088.00
2023-01-20T11:02:11.961Z,11740.00
2023-01-20T11:03:04.392Z,13056.00
2023-01-20T11:04:03.302Z,14084.00
2023-01-20T11:05:03.292Z,12584.00
2023-01-20T11:06:03.277Z,10180.00
2023-01-20T11:07:03.263Z,9860.00
2023-01-20T11:08:03.249Z,9628.00
2023-01-20T11:09:03.232Z,9400.00
2023-01-20T11:10:03.453Z,10952.00
2023-01-20T11:11:03.252Z,11996.00
2023-01-20T11:12:03.197Z,10124.00
2023-01-20T11:13:03.188Z,9628.00
2023-01-20T11:14:03.203Z,10780.00
2023-01-20T11:15:03.163Z,11192.00
2023-01-20T11:16:03.186Z,8876.00
2023-01-20T11:17:03.128Z,9080.00
2023-01-20T11:18:03.114Z,9680.00
2023-01-20T11:19:03.110Z,9624.00
2023-01-20T11:20:03.090Z,8028.00
2023-01-20T11:21:03.072Z,8932.00
2023-01-20T11:22:03.056Z,10344.00
2023-01-20T11:23:03.049Z,10656.00
2023-01-20T11:24:03.032Z,9624.00
2023-01-20T11:25:03.016Z,9764.00
2023-01-20T11:26:03.001Z,9560.00
2023-01-20T11:27:02.992Z,8864.00
2023-01-20T11:28:02.992Z,8476.00
2023-01-20T11:29:03.038Z,7160.00
2023-01-20T11:30:03.003Z,7412.00
2023-01-20T11:31:03.028Z,8392.00
2023-01-20T11:32:02.940Z,9308.00
2023-01-20T11:33:02.929Z,9180.00
2023-01-20T11:34:02.893Z,10284.00
2023-01-20T11:35:02.897Z,11496.00
2023-01-20T11:36:02.865Z,9768.00
2023-01-20T11:37:02.881Z,9720.00
2023-01-20T11:38:02.849Z,9404.00
2023-01-20T11:39:02.833Z,9512.00
2023-01-20T11:40:02.814Z,10384.00
2023-01-20T11:41:02.797Z,11884.00
2023-01-20T11:42:02.797Z,13728.00
2023-01-20T11:43:02.779Z,15712.00
2023-01-20T11:44:02.778Z,16992.00
2023-01-20T11:45:20.133Z,17216.00
2023-01-20T11:46:03.780Z,17440.00
2023-01-20T11:47:02.717Z,17088.00
2023-01-20T11:48:02.707Z,16960.00
2023-01-20T11:49:02.691Z,17312.00
2023-01-20T11:50:02.684Z,17280.00
2023-01-20T11:51:02.663Z,16896.00
2023-01-20T11:52:02.690Z,17088.00
2023-01-20T11:53:02.636Z,17888.00
2023-01-20T11:54:02.625Z,16768.00
2023-01-20T11:55:02.636Z,17280.00
2023-01-20T11:56:02.597Z,17600.00
2023-01-20T11:57:02.587Z,17824.00
2023-01-20T11:58:02.571Z,17696.00
2023-01-20T11:59:02.601Z,18560.00
2023-01-20T12:00:02.541Z,17792.00
2023-01-20T12:01:02.525Z,18240.00
2023-01-20T12:02:02.686Z,17504.00
2023-01-20T12:03:02.502Z,17376.00
2023-01-20T12:04:02.516Z,16864.00
2023-01-20T12:05:02.473Z,16800.00
2023-01-20T12:06:02.463Z,16864.00
2023-01-20T12:07:02.446Z,17184.00
2023-01-20T12:08:02.436Z,16992.00
2023-01-20T12:09:02.432Z,17056.00
2023-01-20T12:10:02.618Z,17056.00
2023-01-20T12:11:02.392Z,16608.00
2023-01-20T12:12:02.594Z,16896.00
2023-01-20T12:13:02.365Z,16928.00
2023-01-20T12:14:02.344Z,17120.00
2023-01-20T12:15:02.345Z,17152.00
2023-01-20T12:16:02.338Z,17632.00
2023-01-20T12:17:02.321Z,17536.00
2023-01-20T12:18:02.538Z,17536.00
2023-01-20T12:19:03.042Z,17920.00
2023-01-20T12:20:02.280Z,17696.00
2023-01-20T12:21:02.256Z,18080.00
2023-01-20T12:22:02.251Z,17664.00
2023-01-20T12:23:02.231Z,17824.00
2023-01-20T12:24:03.275Z,17792.00
2023-01-20T12:25:02.222Z,18112.00
2023-01-20T12:26:02.211Z,18048.00
2023-01-20T12:27:02.166Z,17920.00
2023-01-20T12:28:02.155Z,17952.00
2023-01-20T12:29:02.139Z,17824.00
2023-01-20T12:30:02.126Z,18048.00
2023-01-20T12:31:02.220Z,17920.00
2023-01-20T12:32:02.203Z,17920.00
2023-01-20T12:33:02.097Z,17728.00
2023-01-20T12:34:02.092Z,17408.00
2023-01-20T12:35:02.079Z,17248.00
2023-01-20T12:36:03.011Z,17024.00
2023-01-20T12:37:02.038Z,17088.00
2023-01-20T12:38:02.016Z,17152.00
2023-01-20T12:39:02.012Z,16992.00
2023-01-20T12:40:02.012Z,16800.00
2023-01-20T12:41:01.989Z,16832.00
2023-01-20T12:42:03.037Z,17056.00
2023-01-20T12:43:01.964Z,16512.00